Terminal Aerodrome Forecast
Issued by NWS

Current Version | Previous Version | Text Only | Print | Product List | Glossary On
Versions: 1 2 3 4 5 6 7 8 9 10 11 12 13 14 15
000
FTUS44 KTSA 231137
TAFFYV
TAF
KFYV 231137Z 2312/2412 33006KT P6SM OVC007
      TEMPO 2312/2315 5SM -SHRA BR OVC004
     FM231800 35009KT P6SM OVC015
     FM232100 34008KT P6SM BKN050
     FM240100 34003KT P6SM BKN100
     FM240400 VRB03KT P6SM SKC=

USA.gov is the U.S. government's official web portal to all federal, state and local government web resources and services.